Wiscotta, Iowa
Current Conditions -  °F | °C
As of 2:15 AM on Friday 24 Oct 2014 (Local Time) from KPRO Reporting Station
Clear Clear  
Wind Chill: 42°   Ceiling: Unl
Heat Index: 44°   Visibility: 10mi
Dew Point: 44°   Wind: 5mph
Humidity: 99%   Direction: 150°SSE
Pressure: 30.01"   Gusts: NA
Location:  41.5743°N, 94.1829°W
Report Text: KPRO 240715Z AUTO 15004KT 10SM CLR 07/07 A3001 RMK AO2 T00670065
Loading
Personal Weather Stations






























Interactive Weather Map
Tropical Storm Tracking
New forecast layout! Learn more

10-Day Weather Forecast

Advertisements
Track Severe Weather on mobile